Аэропорт: Емельяново. Красноярск

ICAO: UNKL

METAR:
2020-08-12 07:00:00
UNKL 120700Z 13004MPS 8000 NSC 27/16 Q1002 R11/CLRD65 NOSIG RMK QFE726
METAR:
2020-08-12 04:56:00
TAF UNKL 120456Z 1206/1306 11003G10MPS 4000 FU SCT030 BECMG 1208/1210 SCT020CB FM122100 25003MPS 5000 BR SCT018CB TEMPO 1221/1302 3100 -TSRA BR FEW004 BKN016CB FM130200 26003G10MPS 6000 -SHRA SCT020CB TEMPO 1302/1306 3100 -TSRA BKN016CB